createdAt,value
2022-11-09T00:00:55.841Z,60.37
2022-11-09T00:03:33.800Z,60.46
2022-11-09T00:06:19.935Z,60.21
2022-11-09T00:09:08.207Z,60.33
2022-11-09T00:12:02.714Z,60.13
2022-11-09T00:14:51.769Z,59.98
2022-11-09T00:20:47.682Z,60.24
2022-11-09T00:23:26.652Z,60.13
2022-11-09T00:26:08.791Z,60.27
2022-11-09T00:28:52.202Z,60.12
2022-11-09T00:34:44.324Z,60.45
2022-11-09T00:37:37.992Z,60.47
2022-11-09T00:40:28.753Z,60.43
2022-11-09T00:43:29.833Z,60.24
2022-11-09T00:46:14.009Z,60.29
2022-11-09T00:48:54.987Z,60.16
2022-11-09T00:54:43.921Z,59.86
2022-11-09T00:57:51.376Z,59.93
2022-11-09T01:00:56.413Z,59.95
2022-11-09T01:03:41.173Z,59.73
2022-11-09T01:06:28.949Z,59.61
2022-11-09T01:09:09.164Z,59.43
2022-11-09T01:11:44.360Z,59.34
2022-11-09T01:14:23.188Z,59.28
2022-11-09T01:17:08.687Z,59.26
2022-11-09T01:19:43.256Z,59.34
2022-11-09T01:22:49.015Z,58.69
2022-11-09T01:25:31.194Z,58.78
2022-11-09T01:28:06.299Z,58.62
2022-11-09T01:30:55.413Z,58.45
2022-11-09T01:36:44.396Z,58.30
2022-11-09T01:39:22.240Z,58.27
2022-11-09T01:42:03.539Z,58.71
2022-11-09T01:45:25.514Z,58.70
2022-11-09T01:48:18.305Z,58.91
2022-11-09T01:51:09.731Z,59.11
2022-11-09T01:53:57.622Z,59.06
2022-11-09T01:56:49.158Z,58.83
2022-11-09T01:59:55.921Z,59.02
2022-11-09T02:02:51.165Z,59.15
2022-11-09T02:05:55.392Z,59.27
2022-11-09T02:08:48.982Z,59.51
2022-11-09T02:14:37.404Z,59.56
2022-11-09T02:17:20.836Z,59.52
2022-11-09T02:20:21.150Z,59.74
2022-11-09T02:23:08.460Z,59.42
2022-11-09T02:26:05.931Z,59.77
2022-11-09T02:28:55.127Z,59.91
2022-11-09T02:31:35.997Z,60.00
2022-11-09T02:37:37.265Z,60.35
2022-11-09T02:40:23.439Z,60.38
2022-11-09T02:42:57.892Z,60.44
2022-11-09T02:45:46.133Z,60.66
2022-11-09T02:51:32.215Z,60.88
2022-11-09T02:54:30.390Z,60.87
2022-11-09T02:57:09.812Z,60.98
2022-11-09T02:59:56.952Z,60.96
2022-11-09T03:03:17.512Z,61.29
2022-11-09T03:05:51.860Z,61.19
2022-11-09T03:08:19.415Z,61.34
2022-11-09T03:10:47.162Z,61.38
2022-11-09T03:13:16.091Z,61.59
2022-11-09T03:15:43.669Z,61.69
2022-11-09T03:18:11.191Z,61.76
2022-11-09T03:20:38.746Z,61.81
2022-11-09T03:23:06.295Z,61.86
2022-11-09T03:25:33.780Z,61.93
2022-11-09T03:28:02.934Z,62.21
2022-11-09T03:30:32.508Z,62.23
2022-11-09T03:33:00.424Z,62.23
2022-11-09T03:35:28.163Z,62.13
2022-11-09T03:37:55.754Z,62.24
2022-11-09T03:40:23.397Z,62.26
2022-11-09T03:42:50.902Z,62.24
2022-11-09T03:45:18.437Z,62.17
2022-11-09T03:47:48.500Z,62.25
2022-11-09T03:50:18.131Z,62.10
2022-11-09T03:52:46.457Z,62.06
2022-11-09T03:55:15.837Z,62.25
2022-11-09T03:57:45.509Z,62.08
2022-11-09T04:00:15.976Z,62.07
2022-11-09T04:02:43.514Z,62.21
2022-11-09T04:05:12.660Z,62.20
2022-11-09T04:07:40.768Z,62.04
2022-11-09T04:10:10.157Z,62.00
2022-11-09T04:12:37.661Z,62.11
2022-11-09T04:15:05.863Z,62.05
2022-11-09T04:17:33.350Z,62.10
2022-11-09T04:20:00.894Z,62.08
2022-11-09T04:22:29.780Z,62.37
2022-11-09T04:24:57.303Z,62.73
2022-11-09T04:27:24.824Z,63.44
2022-11-09T04:29:52.534Z,63.13
2022-11-09T04:32:20.081Z,63.42
2022-11-09T04:34:47.610Z,63.22
2022-11-09T04:37:15.177Z,62.58
2022-11-09T04:39:44.022Z,62.53
2022-11-09T04:42:11.503Z,62.63
2022-11-09T04:44:38.958Z,63.09
2022-11-09T04:47:06.660Z,63.00
2022-11-09T04:49:34.166Z,63.38
2022-11-09T04:52:01.660Z,63.02
2022-11-09T04:54:29.132Z,62.99
2022-11-09T04:56:58.164Z,63.33
2022-11-09T04:59:25.692Z,63.95
2022-11-09T05:01:53.220Z,63.14
2022-11-09T05:04:20.812Z,63.22
2022-11-09T05:06:48.438Z,63.32
2022-11-09T05:09:16.004Z,63.32
2022-11-09T05:11:43.581Z,63.57
2022-11-09T05:14:12.449Z,64.31
2022-11-09T05:16:39.959Z,64.39
2022-11-09T05:19:07.543Z,64.14
2022-11-09T05:21:35.034Z,64.56
2022-11-09T05:24:02.944Z,64.51
2022-11-09T05:26:32.116Z,65.50
2022-11-09T05:29:00.092Z,65.52
2022-11-09T05:31:29.464Z,65.69
2022-11-09T05:33:57.255Z,65.67
2022-11-09T05:36:25.015Z,66.16
2022-11-09T05:38:52.758Z,66.31
2022-11-09T05:41:20.762Z,66.61
2022-11-09T05:43:48.261Z,66.74
2022-11-09T05:46:17.562Z,66.94
2022-11-09T05:48:47.078Z,67.27
2022-11-09T05:51:16.037Z,67.31
2022-11-09T05:53:46.428Z,67.57
2022-11-09T05:56:15.480Z,68.29
2022-11-09T05:58:43.505Z,68.62
2022-11-09T06:01:13.282Z,69.12
2022-11-09T06:03:42.041Z,69.05
2022-11-09T06:06:13.122Z,70.18
2022-11-09T06:08:41.861Z,69.81
2022-11-09T06:11:11.332Z,70.14
2022-11-09T06:13:38.998Z,70.49
2022-11-09T06:16:07.529Z,70.70
2022-11-09T06:18:37.343Z,71.29
2022-11-09T06:21:06.341Z,71.39
2022-11-09T06:23:35.187Z,71.60
2022-11-09T06:26:06.540Z,71.71
2022-11-09T06:28:34.637Z,71.79
2022-11-09T06:31:03.552Z,71.96
2022-11-09T06:33:32.286Z,72.41
2022-11-09T06:36:00.315Z,72.75
2022-11-09T06:38:28.021Z,73.18
2022-11-09T06:40:59.551Z,74.09
2022-11-09T06:43:27.390Z,73.94
2022-11-09T06:45:55.090Z,74.45
2022-11-09T06:48:22.941Z,74.68
2022-11-09T06:50:50.608Z,75.42
2022-11-09T06:53:19.084Z,75.04
2022-11-09T06:55:50.575Z,75.20
2022-11-09T06:58:20.720Z,75.47
2022-11-09T07:00:48.376Z,75.47
2022-11-09T07:03:17.654Z,75.77
2022-11-09T07:05:46.106Z,75.98
2022-11-09T07:08:14.751Z,75.99
2022-11-09T07:10:42.707Z,76.17
2022-11-09T07:13:11.338Z,76.20
2022-11-09T07:15:40.640Z,76.48
2022-11-09T07:18:11.059Z,76.42
2022-11-09T07:20:38.845Z,76.38
2022-11-09T07:23:06.357Z,76.11
2022-11-09T07:25:34.498Z,76.22
2022-11-09T07:28:05.931Z,76.75
2022-11-09T07:30:33.475Z,76.45
2022-11-09T07:33:10.418Z,76.32
2022-11-09T07:35:38.505Z,76.14
2022-11-09T07:38:06.182Z,76.07
2022-11-09T07:40:33.737Z,76.24
2022-11-09T07:43:01.577Z,76.33
2022-11-09T07:45:30.057Z,76.36
2022-11-09T07:47:58.624Z,76.40
2022-11-09T07:50:29.405Z,76.46
2022-11-09T07:52:57.784Z,76.19
2022-11-09T07:55:26.427Z,76.15
2022-11-09T07:57:56.825Z,76.55
2022-11-09T08:00:24.568Z,76.46
2022-11-09T08:02:52.108Z,76.57
2022-11-09T08:05:19.731Z,76.46
2022-11-09T08:07:48.754Z,76.69
2022-11-09T08:10:16.907Z,76.72
2022-11-09T08:12:44.412Z,76.56
2022-11-09T08:15:12.255Z,76.57
2022-11-09T08:17:39.753Z,76.60
2022-11-09T08:20:08.356Z,76.72
2022-11-09T08:22:42.147Z,77.39
2022-11-09T08:25:12.312Z,77.27
2022-11-09T08:27:40.989Z,77.01
2022-11-09T08:30:12.496Z,77.38
2022-11-09T08:32:40.096Z,77.15
2022-11-09T08:35:10.064Z,77.10
2022-11-09T08:37:37.790Z,77.18
2022-11-09T08:40:07.045Z,77.32
2022-11-09T08:42:35.893Z,77.41
2022-11-09T08:45:03.440Z,77.59
2022-11-09T08:47:30.993Z,77.60
2022-11-09T08:49:58.575Z,77.55
2022-11-09T08:52:26.091Z,77.72
2022-11-09T08:54:53.559Z,77.79
2022-11-09T08:57:21.647Z,77.98
2022-11-09T08:59:50.474Z,78.02
2022-11-09T09:02:18.471Z,77.75
2022-11-09T09:04:46.087Z,78.06
2022-11-09T09:24:55.495Z,76.94
2022-11-09T09:33:49.462Z,76.86
2022-11-09T09:36:21.263Z,76.76
2022-11-09T09:39:04.218Z,76.98
2022-11-09T10:24:48.623Z,76.21
2022-11-09T10:38:46.651Z,75.29
2022-11-09T10:42:07.575Z,75.13
2022-11-09T10:49:20.585Z,74.96
2022-11-09T10:55:51.977Z,73.33
2022-11-09T11:05:48.675Z,65.55
2022-11-09T15:09:22.290Z,64.03
2022-11-09T15:11:50.677Z,63.58
2022-11-09T15:14:26.268Z,63.94
2022-11-09T15:17:01.079Z,63.98
2022-11-09T15:19:31.564Z,63.41
2022-11-09T15:21:59.778Z,64.25
2022-11-09T15:24:30.160Z,64.30
2022-11-09T15:26:58.600Z,64.32
2022-11-09T15:29:31.294Z,64.82
2022-11-09T15:32:01.168Z,65.77
2022-11-09T15:34:33.439Z,65.76
2022-11-09T15:37:01.165Z,65.10
2022-11-09T15:39:30.075Z,65.34
2022-11-09T15:41:57.725Z,65.75
2022-11-09T15:44:25.244Z,65.61
2022-11-09T15:46:54.274Z,65.91
2022-11-09T15:49:25.579Z,65.86
2022-11-09T15:51:53.548Z,66.06
2022-11-09T15:54:22.208Z,66.00
2022-11-09T15:56:51.915Z,66.53
2022-11-09T15:59:24.454Z,66.79
2022-11-09T16:01:51.897Z,66.36
2022-11-09T16:04:19.773Z,66.49
2022-11-09T16:06:47.324Z,66.86
2022-11-09T16:09:15.035Z,67.32
2022-11-09T16:11:42.655Z,67.56
2022-11-09T16:14:11.483Z,68.60
2022-11-09T16:16:38.954Z,68.14
2022-11-09T16:19:06.706Z,68.47
2022-11-09T16:21:34.239Z,68.46
2022-11-09T16:24:01.744Z,69.16
2022-11-09T16:26:29.287Z,69.39
2022-11-09T16:28:56.757Z,69.54
2022-11-09T16:31:48.153Z,69.83
2022-11-09T16:34:13.139Z,69.99
2022-11-09T16:36:46.446Z,70.04
2022-11-09T16:39:17.850Z,70.28
2022-11-09T16:41:47.306Z,70.48
2022-11-09T16:44:16.836Z,70.69
2022-11-09T16:46:48.491Z,71.24
2022-11-09T16:49:16.062Z,71.02
2022-11-09T16:51:43.597Z,71.14
2022-11-09T16:54:11.097Z,71.14
2022-11-09T16:56:38.585Z,71.52
2022-11-09T16:59:06.219Z,71.45
2022-11-09T17:01:33.778Z,71.66
2022-11-09T17:04:02.636Z,72.08
2022-11-09T17:06:30.233Z,71.96
2022-11-09T17:08:58.069Z,72.00
2022-11-09T17:11:25.823Z,72.00
2022-11-09T17:13:57.348Z,72.35
2022-11-09T17:16:25.703Z,72.16
2022-11-09T17:18:54.668Z,71.98
2022-11-09T17:21:24.512Z,72.25
2022-11-09T17:23:52.730Z,71.87
2022-11-09T17:26:21.229Z,72.24
2022-11-09T17:28:48.972Z,72.36
2022-11-09T17:31:18.806Z,72.21
2022-11-09T17:33:46.655Z,72.57
2022-11-09T17:36:15.953Z,72.55
2022-11-09T17:38:44.814Z,73.22
2022-11-09T17:41:14.359Z,72.53
2022-11-09T17:43:43.221Z,73.10
2022-11-09T17:46:12.631Z,72.29
2022-11-09T17:48:41.283Z,72.17
2022-11-09T17:51:09.682Z,72.36
2022-11-09T17:53:38.084Z,72.75
2022-11-09T17:56:09.678Z,72.71
2022-11-09T17:58:40.364Z,72.84
2022-11-09T18:01:08.599Z,72.67
2022-11-09T18:03:37.253Z,72.57
2022-11-09T18:06:05.649Z,72.31
2022-11-09T18:08:33.245Z,72.79
2022-11-09T18:11:00.805Z,73.47
2022-11-09T18:13:29.618Z,73.29
2022-11-09T18:15:57.127Z,73.50
2022-11-09T18:18:25.335Z,73.24
2022-11-09T18:20:53.480Z,73.17
2022-11-09T18:23:20.966Z,73.17
2022-11-09T18:26:00.281Z,73.15
2022-11-09T18:28:30.040Z,73.72
2022-11-09T18:31:05.647Z,73.42
2022-11-09T18:33:33.900Z,73.14
2022-11-09T18:36:06.887Z,73.43
2022-11-09T18:38:35.707Z,72.75
2022-11-09T18:41:05.702Z,72.74
2022-11-09T18:43:34.804Z,73.04
2022-11-09T18:46:03.883Z,73.34
2022-11-09T18:48:31.950Z,72.83
2022-11-09T18:51:00.616Z,72.73
2022-11-09T18:53:29.797Z,72.82
2022-11-09T18:56:06.096Z,72.85
2022-11-09T18:58:36.213Z,72.75
2022-11-09T19:01:05.831Z,72.55
2022-11-09T19:03:33.792Z,72.58
2022-11-09T19:06:05.344Z,71.74
2022-11-09T19:08:50.282Z,71.82
2022-11-09T19:11:17.839Z,71.19
2022-11-09T19:13:46.752Z,71.30
2022-11-09T19:16:15.538Z,72.13
2022-11-09T19:18:43.620Z,71.78
2022-11-09T19:21:26.960Z,72.07
2022-11-09T19:23:54.823Z,71.75
2022-11-09T19:26:23.199Z,71.87
2022-11-09T19:28:52.084Z,71.59
2022-11-09T19:31:22.511Z,71.71
2022-11-09T19:33:49.994Z,71.98
2022-11-09T19:36:34.308Z,71.93
2022-11-09T19:39:02.340Z,72.02
2022-11-09T19:41:29.877Z,72.37
2022-11-09T19:44:00.021Z,72.68
2022-11-09T19:46:30.407Z,72.56
2022-11-09T19:48:58.395Z,72.82
2022-11-09T19:51:26.054Z,72.70
2022-11-09T19:53:55.273Z,72.74
2022-11-09T19:56:24.467Z,72.72
2022-11-09T19:58:53.523Z,72.86
2022-11-09T20:01:23.284Z,73.33
2022-11-09T20:03:51.947Z,72.85
2022-11-09T20:06:20.808Z,73.06
2022-11-09T20:08:48.571Z,73.03
2022-11-09T20:11:37.660Z,73.23
2022-11-09T20:14:06.003Z,72.81
2022-11-09T20:16:36.281Z,73.06
2022-11-09T20:19:05.375Z,73.48
2022-11-09T20:21:33.025Z,73.46
2022-11-09T20:24:00.524Z,73.38
2022-11-09T20:26:29.180Z,73.70
2022-11-09T20:28:57.060Z,73.76
2022-11-09T20:31:25.005Z,73.79
2022-11-09T20:33:53.874Z,73.31
2022-11-09T20:36:21.395Z,73.49
2022-11-09T20:38:49.090Z,73.46
2022-11-09T20:41:18.691Z,73.88
2022-11-09T20:43:48.228Z,74.18
2022-11-09T20:46:17.712Z,74.28
2022-11-09T20:48:55.005Z,73.67
2022-11-09T20:51:25.356Z,73.45
2022-11-09T20:53:53.156Z,73.86
2022-11-09T20:56:21.631Z,73.57
2022-11-09T20:58:49.629Z,74.41
2022-11-09T21:01:18.973Z,73.73
2022-11-09T21:03:47.669Z,73.57
2022-11-09T21:06:15.559Z,73.98
2022-11-09T21:08:47.204Z,73.61
2022-11-09T21:11:14.955Z,73.50
2022-11-09T21:13:44.054Z,73.43
2022-11-09T21:16:13.641Z,73.40
2022-11-09T21:18:41.747Z,73.05
2022-11-09T21:21:11.373Z,73.35
2022-11-09T21:24:11.872Z,73.04
2022-11-09T21:26:58.303Z,72.98
2022-11-09T21:29:43.239Z,73.49
2022-11-09T21:32:12.044Z,72.91
2022-11-09T21:34:39.801Z,73.25
2022-11-09T21:37:07.594Z,73.01
2022-11-09T21:39:35.406Z,73.93
2022-11-09T21:42:05.329Z,73.71
2022-11-09T21:44:34.027Z,73.27
2022-11-09T21:47:02.321Z,73.14
2022-11-09T21:49:29.835Z,73.37
2022-11-09T21:51:57.605Z,73.76
2022-11-09T21:54:25.454Z,74.04
2022-11-09T21:56:53.965Z,73.59
2022-11-09T21:59:22.919Z,73.73
2022-11-09T22:01:50.747Z,73.76
2022-11-09T22:04:18.658Z,73.60
2022-11-09T22:06:46.404Z,73.41
2022-11-09T22:09:16.591Z,73.55
2022-11-09T22:12:01.783Z,73.87
2022-11-09T22:14:48.381Z,73.80
2022-11-09T22:17:16.066Z,73.77
2022-11-09T22:20:01.245Z,74.76
2022-11-09T22:22:30.512Z,74.32
2022-11-09T22:24:58.524Z,74.59
2022-11-09T22:27:26.066Z,75.06
2022-11-09T22:29:55.009Z,74.76
2022-11-09T22:32:22.770Z,75.17
2022-11-09T22:34:50.313Z,75.33
2022-11-09T22:37:17.956Z,75.28
2022-11-09T22:39:47.448Z,75.51
2022-11-09T22:42:15.358Z,75.43
2022-11-09T22:44:42.921Z,75.75
2022-11-09T22:47:11.783Z,75.67
2022-11-09T22:49:39.323Z,75.55
2022-11-09T22:52:06.940Z,75.82
2022-11-09T22:54:34.416Z,75.49
2022-11-09T22:57:01.928Z,75.47
2022-11-09T22:59:29.426Z,75.75
2022-11-09T23:01:57.004Z,75.27
2022-11-09T23:04:25.988Z,75.13
2022-11-09T23:06:53.566Z,74.95
2022-11-09T23:09:21.156Z,75.24
2022-11-09T23:11:48.700Z,75.39
2022-11-09T23:14:36.208Z,75.27
2022-11-09T23:17:23.738Z,75.34
2022-11-09T23:19:51.621Z,76.22
2022-11-09T23:22:19.100Z,76.11
2022-11-09T23:25:04.440Z,75.58
2022-11-09T23:27:31.922Z,76.13
2022-11-09T23:29:59.453Z,75.68
2022-11-09T23:32:27.029Z,75.81
2022-11-09T23:34:55.926Z,76.14
2022-11-09T23:37:23.427Z,76.06
2022-11-09T23:39:51.156Z,75.79
2022-11-09T23:42:18.640Z,75.94
2022-11-09T23:44:46.191Z,75.47
2022-11-09T23:47:13.679Z,75.37
2022-11-09T23:49:41.207Z,75.34
2022-11-09T23:52:10.311Z,75.26
2022-11-09T23:54:37.862Z,74.76
2022-11-09T23:57:05.491Z,74.74
2022-11-09T23:59:33.004Z,74.32
